Aviation Digital Data Service (ADDS)

Output produced by METARs form (0753 UTC 29 July 2016)
found at http://aviationweather.gov/adds/metars/
 
KPSM 290534Z 2906/3006 VRB03KT P6SM SCT060 BKN250 
     FM290800 VRB03KT 6SM -SHRA BR BKN060 
     FM291400 09005KT 5SM -SHRA SCT020 BKN050 
     FM300100 VRB03KT P6SM SCT100